sensor_id;sensor_type;location;lat;lon;timestamp;temperature;humidity
9984;DHT22;16737;50.932;6.780;2023-04-03T00:00:39;6.50;93.50
9984;DHT22;16737;50.932;6.780;2023-04-03T00:03:06;6.50;93.50
9984;DHT22;16737;50.932;6.780;2023-04-03T00:05:33;6.50;93.50
9984;DHT22;16737;50.932;6.780;2023-04-03T00:08:00;6.50;93.50
9984;DHT22;16737;50.932;6.780;2023-04-03T00:10:28;6.50;93.50
9984;DHT22;16737;50.932;6.780;2023-04-03T00:12:55;6.50;93.50
9984;DHT22;16737;50.932;6.780;2023-04-03T00:15:22;6.50;93.40
9984;DHT22;16737;50.932;6.780;2023-04-03T00:17:50;6.60;93.50
9984;DHT22;16737;50.932;6.780;2023-04-03T00:20:17;6.50;93.40
9984;DHT22;16737;50.932;6.780;2023-04-03T00:22:44;6.50;93.40
9984;DHT22;16737;50.932;6.780;2023-04-03T00:25:11;6.50;93.40
9984;DHT22;16737;50.932;6.780;2023-04-03T00:27:39;6.50;93.40
9984;DHT22;16737;50.932;6.780;2023-04-03T00:30:09;6.50;93.40
9984;DHT22;16737;50.932;6.780;2023-04-03T00:32:39;6.40;93.30
9984;DHT22;16737;50.932;6.780;2023-04-03T00:35:08;6.40;93.40
9984;DHT22;16737;50.932;6.780;2023-04-03T00:37:36;6.40;93.40
9984;DHT22;16737;50.932;6.780;2023-04-03T00:40:05;6.40;93.40
9984;DHT22;16737;50.932;6.780;2023-04-03T00:42:33;6.40;93.40
9984;DHT22;16737;50.932;6.780;2023-04-03T00:45:27;6.30;93.30
9984;DHT22;16737;50.932;6.780;2023-04-03T00:47:58;6.30;93.30
9984;DHT22;16737;50.932;6.780;2023-04-03T00:50:29;6.30;93.30
9984;DHT22;16737;50.932;6.780;2023-04-03T00:52:57;6.20;93.30
9984;DHT22;16737;50.932;6.780;2023-04-03T00:55:25;6.20;93.30
9984;DHT22;16737;50.932;6.780;2023-04-03T00:57:53;6.20;93.30
9984;DHT22;16737;50.932;6.780;2023-04-03T01:00:23;6.10;93.30
9984;DHT22;16737;50.932;6.780;2023-04-03T01:02:59;6.10;93.30
9984;DHT22;16737;50.932;6.780;2023-04-03T01:05:26;6.00;93.30
9984;DHT22;16737;50.932;6.780;2023-04-03T01:07:55;6.00;93.30
9984;DHT22;16737;50.932;6.780;2023-04-03T01:10:23;6.00;93.30
9984;DHT22;16737;50.932;6.780;2023-04-03T01:12:51;6.00;93.30
9984;DHT22;16737;50.932;6.780;2023-04-03T01:15:21;5.90;93.30
9984;DHT22;16737;50.932;6.780;2023-04-03T01:17:51;5.90;93.30
9984;DHT22;16737;50.932;6.780;2023-04-03T01:20:42;5.90;93.30
9984;DHT22;16737;50.932;6.780;2023-04-03T01:23:46;5.90;93.30
9984;DHT22;16737;50.932;6.780;2023-04-03T01:26:21;5.80;93.20
9984;DHT22;16737;50.932;6.780;2023-04-03T01:28:48;5.70;93.20
9984;DHT22;16737;50.932;6.780;2023-04-03T01:31:22;5.70;93.20
9984;DHT22;16737;50.932;6.780;2023-04-03T01:33:55;5.70;93.20
9984;DHT22;16737;50.932;6.780;2023-04-03T01:36:24;5.70;93.30
9984;DHT22;16737;50.932;6.780;2023-04-03T01:38:53;5.60;93.30
9984;DHT22;16737;50.932;6.780;2023-04-03T01:41:21;5.50;93.30
9984;DHT22;16737;50.932;6.780;2023-04-03T01:43:48;5.50;93.30
9984;DHT22;16737;50.932;6.780;2023-04-03T01:46:16;5.50;93.30
9984;DHT22;16737;50.932;6.780;2023-04-03T01:48:44;5.50;93.30
9984;DHT22;16737;50.932;6.780;2023-04-03T01:51:12;5.50;93.30
9984;DHT22;16737;50.932;6.780;2023-04-03T01:53:39;5.40;93.30
9984;DHT22;16737;50.932;6.780;2023-04-03T01:56:07;5.40;93.30
9984;DHT22;16737;50.932;6.780;2023-04-03T01:58:35;5.40;93.70
9984;DHT22;16737;50.932;6.780;2023-04-03T02:01:02;5.30;93.30
9984;DHT22;16737;50.932;6.780;2023-04-03T02:03:30;5.30;93.40
9984;DHT22;16737;50.932;6.780;2023-04-03T02:05:57;5.30;93.40
9984;DHT22;16737;50.932;6.780;2023-04-03T02:08:25;5.20;93.30
9984;DHT22;16737;50.932;6.780;2023-04-03T02:10:52;5.20;93.70
9984;DHT22;16737;50.932;6.780;2023-04-03T02:13:19;5.20;93.40
9984;DHT22;16737;50.932;6.780;2023-04-03T02:15:47;5.20;93.40
9984;DHT22;16737;50.932;6.780;2023-04-03T02:18:14;5.20;93.40
9984;DHT22;16737;50.932;6.780;2023-04-03T02:20:41;5.10;93.40
9984;DHT22;16737;50.932;6.780;2023-04-03T02:23:09;5.10;93.40
9984;DHT22;16737;50.932;6.780;2023-04-03T02:25:37;5.10;93.40
9984;DHT22;16737;50.932;6.780;2023-04-03T02:28:04;5.00;93.40
9984;DHT22;16737;50.932;6.780;2023-04-03T02:30:31;5.00;93.40
9984;DHT22;16737;50.932;6.780;2023-04-03T02:32:58;5.00;93.40
9984;DHT22;16737;50.932;6.780;2023-04-03T02:35:25;5.00;93.40
9984;DHT22;16737;50.932;6.780;2023-04-03T02:37:52;5.00;93.40
9984;DHT22;16737;50.932;6.780;2023-04-03T02:40:20;4.90;93.40
9984;DHT22;16737;50.932;6.780;2023-04-03T02:42:48;4.90;93.40
9984;DHT22;16737;50.932;6.780;2023-04-03T02:45:15;4.90;93.40
9984;DHT22;16737;50.932;6.780;2023-04-03T02:47:42;4.90;93.40
9984;DHT22;16737;50.932;6.780;2023-04-03T02:50:09;4.80;93.40
9984;DHT22;16737;50.932;6.780;2023-04-03T02:52:36;4.80;93.50
9984;DHT22;16737;50.932;6.780;2023-04-03T02:55:04;4.80;93.50
9984;DHT22;16737;50.932;6.780;2023-04-03T02:57:31;4.80;93.50
9984;DHT22;16737;50.932;6.780;2023-04-03T03:00:00;4.80;93.50
9984;DHT22;16737;50.932;6.780;2023-04-03T03:02:27;4.70;93.50
9984;DHT22;16737;50.932;6.780;2023-04-03T03:04:54;4.70;93.50
9984;DHT22;16737;50.932;6.780;2023-04-03T03:07:20;4.70;93.50
9984;DHT22;16737;50.932;6.780;2023-04-03T03:09:47;4.70;93.50
9984;DHT22;16737;50.932;6.780;2023-04-03T03:12:15;4.70;93.50
9984;DHT22;16737;50.932;6.780;2023-04-03T03:14:46;4.70;93.50
9984;DHT22;16737;50.932;6.780;2023-04-03T03:17:15;4.70;93.60
9984;DHT22;16737;50.932;6.780;2023-04-03T03:19:42;4.70;93.90
9984;DHT22;16737;50.932;6.780;2023-04-03T03:22:11;4.70;93.60
9984;DHT22;16737;50.932;6.780;2023-04-03T03:24:38;4.60;93.60
9984;DHT22;16737;50.932;6.780;2023-04-03T03:27:05;4.60;93.60
9984;DHT22;16737;50.932;6.780;2023-04-03T03:29:32;4.60;93.60
9984;DHT22;16737;50.932;6.780;2023-04-03T03:31:59;4.60;93.60
9984;DHT22;16737;50.932;6.780;2023-04-03T03:34:27;4.60;93.60
9984;DHT22;16737;50.932;6.780;2023-04-03T03:36:54;4.60;93.60
9984;DHT22;16737;50.932;6.780;2023-04-03T03:39:21;4.60;93.60
9984;DHT22;16737;50.932;6.780;2023-04-03T03:41:48;4.60;93.60
9984;DHT22;16737;50.932;6.780;2023-04-03T03:44:16;4.50;93.60
9984;DHT22;16737;50.932;6.780;2023-04-03T03:46:43;4.60;93.60
9984;DHT22;16737;50.932;6.780;2023-04-03T03:49:09;4.50;93.60
9984;DHT22;16737;50.932;6.780;2023-04-03T03:51:38;4.50;93.60
9984;DHT22;16737;50.932;6.780;2023-04-03T03:54:06;4.50;93.60
9984;DHT22;16737;50.932;6.780;2023-04-03T03:56:33;4.50;93.60
9984;DHT22;16737;50.932;6.780;2023-04-03T03:59:00;4.50;93.60
9984;DHT22;16737;50.932;6.780;2023-04-03T04:01:27;4.50;93.70
9984;DHT22;16737;50.932;6.780;2023-04-03T04:03:55;4.40;93.60
9984;DHT22;16737;50.932;6.780;2023-04-03T04:06:22;4.40;93.60
9984;DHT22;16737;50.932;6.780;2023-04-03T04:08:50;4.40;93.60
9984;DHT22;16737;50.932;6.780;2023-04-03T04:11:17;4.40;93.60
9984;DHT22;16737;50.932;6.780;2023-04-03T04:13:44;4.40;93.60
9984;DHT22;16737;50.932;6.780;2023-04-03T04:16:11;4.40;93.60
9984;DHT22;16737;50.932;6.780;2023-04-03T04:18:38;4.40;93.60
9984;DHT22;16737;50.932;6.780;2023-04-03T04:21:05;4.40;93.60
9984;DHT22;16737;50.932;6.780;2023-04-03T04:23:32;4.30;93.60
9984;DHT22;16737;50.932;6.780;2023-04-03T04:26:00;4.40;93.60
9984;DHT22;16737;50.932;6.780;2023-04-03T04:28:27;4.30;93.60
9984;DHT22;16737;50.932;6.780;2023-04-03T04:30:54;4.30;93.60
9984;DHT22;16737;50.932;6.780;2023-04-03T04:33:21;4.30;93.60
9984;DHT22;16737;50.932;6.780;2023-04-03T04:35:48;4.30;93.60
9984;DHT22;16737;50.932;6.780;2023-04-03T04:38:15;4.20;93.60
9984;DHT22;16737;50.932;6.780;2023-04-03T04:40:42;4.20;93.70
9984;DHT22;16737;50.932;6.780;2023-04-03T04:43:10;4.20;93.70
9984;DHT22;16737;50.932;6.780;2023-04-03T04:45:40;4.20;93.70
9984;DHT22;16737;50.932;6.780;2023-04-03T04:48:07;4.20;93.70
9984;DHT22;16737;50.932;6.780;2023-04-03T04:50:34;4.20;93.70
9984;DHT22;16737;50.932;6.780;2023-04-03T04:53:01;4.20;93.70
9984;DHT22;16737;50.932;6.780;2023-04-03T04:55:29;4.20;93.70
9984;DHT22;16737;50.932;6.780;2023-04-03T04:57:56;4.20;93.70
9984;DHT22;16737;50.932;6.780;2023-04-03T05:00:25;4.20;93.70
9984;DHT22;16737;50.932;6.780;2023-04-03T05:02:52;4.10;93.70
9984;DHT22;16737;50.932;6.780;2023-04-03T05:05:19;4.10;93.70
9984;DHT22;16737;50.932;6.780;2023-04-03T05:07:46;4.20;93.70
9984;DHT22;16737;50.932;6.780;2023-04-03T05:10:12;4.20;93.80
9984;DHT22;16737;50.932;6.780;2023-04-03T05:12:39;4.10;93.70
9984;DHT22;16737;50.932;6.780;2023-04-03T05:15:07;4.10;93.70
9984;DHT22;16737;50.932;6.780;2023-04-03T05:17:36;4.10;93.70
9984;DHT22;16737;50.932;6.780;2023-04-03T05:20:04;4.10;93.70
9984;DHT22;16737;50.932;6.780;2023-04-03T05:22:32;4.10;93.70
9984;DHT22;16737;50.932;6.780;2023-04-03T05:25:00;4.10;93.70
9984;DHT22;16737;50.932;6.780;2023-04-03T05:27:27;4.10;93.80
9984;DHT22;16737;50.932;6.780;2023-04-03T05:29:55;4.10;93.80
9984;DHT22;16737;50.932;6.780;2023-04-03T05:32:22;4.10;93.80
9984;DHT22;16737;50.932;6.780;2023-04-03T05:34:51;4.10;93.80
9984;DHT22;16737;50.932;6.780;2023-04-03T05:37:19;4.10;93.80
9984;DHT22;16737;50.932;6.780;2023-04-03T05:39:46;4.10;93.90
9984;DHT22;16737;50.932;6.780;2023-04-03T05:42:13;4.10;93.80
9984;DHT22;16737;50.932;6.780;2023-04-03T05:44:41;4.10;93.90
9984;DHT22;16737;50.932;6.780;2023-04-03T05:47:08;4.10;93.90
9984;DHT22;16737;50.932;6.780;2023-04-03T05:49:35;4.10;93.90
9984;DHT22;16737;50.932;6.780;2023-04-03T05:52:11;4.10;93.90
9984;DHT22;16737;50.932;6.780;2023-04-03T05:54:46;4.10;94.00
9984;DHT22;16737;50.932;6.780;2023-04-03T05:57:14;4.10;94.00
9984;DHT22;16737;50.932;6.780;2023-04-03T05:59:41;4.20;94.10
9984;DHT22;16737;50.932;6.780;2023-04-03T06:02:10;4.20;94.10
9984;DHT22;16737;50.932;6.780;2023-04-03T06:04:39;4.20;94.10
9984;DHT22;16737;50.932;6.780;2023-04-03T06:07:10;4.20;94.10
9984;DHT22;16737;50.932;6.780;2023-04-03T06:09:39;4.30;94.20
9984;DHT22;16737;50.932;6.780;2023-04-03T06:12:06;4.30;94.20
9984;DHT22;16737;50.932;6.780;2023-04-03T06:14:34;4.30;94.20
9984;DHT22;16737;50.932;6.780;2023-04-03T06:17:01;4.20;94.20
9984;DHT22;16737;50.932;6.780;2023-04-03T06:19:28;4.40;94.30
9984;DHT22;16737;50.932;6.780;2023-04-03T06:21:55;4.40;94.30
9984;DHT22;16737;50.932;6.780;2023-04-03T06:24:24;4.50;94.30
9984;DHT22;16737;50.932;6.780;2023-04-03T06:26:52;4.50;94.30
9984;DHT22;16737;50.932;6.780;2023-04-03T06:29:20;4.50;94.30
9984;DHT22;16737;50.932;6.780;2023-04-03T06:31:48;4.60;94.30
9984;DHT22;16737;50.932;6.780;2023-04-03T06:34:15;4.60;94.30
9984;DHT22;16737;50.932;6.780;2023-04-03T06:36:44;4.70;94.40
9984;DHT22;16737;50.932;6.780;2023-04-03T06:39:13;4.70;94.30
9984;DHT22;16737;50.932;6.780;2023-04-03T06:41:44;4.80;94.40
9984;DHT22;16737;50.932;6.780;2023-04-03T06:44:11;4.80;94.40
9984;DHT22;16737;50.932;6.780;2023-04-03T06:46:41;4.90;94.40
9984;DHT22;16737;50.932;6.780;2023-04-03T06:49:09;4.90;94.40
9984;DHT22;16737;50.932;6.780;2023-04-03T06:51:36;5.00;94.40
9984;DHT22;16737;50.932;6.780;2023-04-03T06:54:05;5.00;94.40
9984;DHT22;16737;50.932;6.780;2023-04-03T06:56:33;5.00;94.40
9984;DHT22;16737;50.932;6.780;2023-04-03T06:59:02;5.10;94.40
9984;DHT22;16737;50.932;6.780;2023-04-03T07:01:30;5.10;94.40
9984;DHT22;16737;50.932;6.780;2023-04-03T07:03:57;5.20;94.50
9984;DHT22;16737;50.932;6.780;2023-04-03T07:06:24;5.30;94.50
9984;DHT22;16737;50.932;6.780;2023-04-03T07:08:53;5.30;94.30
9984;DHT22;16737;50.932;6.780;2023-04-03T07:11:20;5.40;94.40
9984;DHT22;16737;50.932;6.780;2023-04-03T07:13:47;5.40;94.30
9984;DHT22;16737;50.932;6.780;2023-04-03T07:16:16;5.50;94.30
9984;DHT22;16737;50.932;6.780;2023-04-03T07:18:43;5.60;94.30
9984;DHT22;16737;50.932;6.780;2023-04-03T07:21:11;5.60;94.30
9984;DHT22;16737;50.932;6.780;2023-04-03T07:23:38;5.70;94.40
9984;DHT22;16737;50.932;6.780;2023-04-03T07:26:05;5.70;94.40
9984;DHT22;16737;50.932;6.780;2023-04-03T07:28:33;5.80;94.40
9984;DHT22;16737;50.932;6.780;2023-04-03T07:31:03;5.90;94.30
9984;DHT22;16737;50.932;6.780;2023-04-03T07:33:35;6.00;94.30
9984;DHT22;16737;50.932;6.780;2023-04-03T07:36:03;6.00;94.30
9984;DHT22;16737;50.932;6.780;2023-04-03T07:38:32;6.10;94.20
9984;DHT22;16737;50.932;6.780;2023-04-03T07:41:00;6.20;94.20
9984;DHT22;16737;50.932;6.780;2023-04-03T07:43:31;6.30;94.10
9984;DHT22;16737;50.932;6.780;2023-04-03T07:45:58;6.40;94.10
9984;DHT22;16737;50.932;6.780;2023-04-03T07:48:26;6.50;94.60
9984;DHT22;16737;50.932;6.780;2023-04-03T07:50:59;6.60;94.20
9984;DHT22;16737;50.932;6.780;2023-04-03T07:53:27;6.70;94.00
9984;DHT22;16737;50.932;6.780;2023-04-03T07:55:54;6.70;94.10
9984;DHT22;16737;50.932;6.780;2023-04-03T07:58:22;6.80;94.20
9984;DHT22;16737;50.932;6.780;2023-04-03T08:00:50;6.90;93.90
9984;DHT22;16737;50.932;6.780;2023-04-03T08:03:17;7.00;93.70
9984;DHT22;16737;50.932;6.780;2023-04-03T08:05:45;7.10;93.50
9984;DHT22;16737;50.932;6.780;2023-04-03T08:08:18;7.10;93.40
9984;DHT22;16737;50.932;6.780;2023-04-03T08:10:49;7.30;93.40
9984;DHT22;16737;50.932;6.780;2023-04-03T08:13:16;7.30;93.40
9984;DHT22;16737;50.932;6.780;2023-04-03T08:15:44;7.40;93.60
9984;DHT22;16737;50.932;6.780;2023-04-03T08:18:12;7.50;93.50
9984;DHT22;16737;50.932;6.780;2023-04-03T08:20:40;7.60;93.30
9984;DHT22;16737;50.932;6.780;2023-04-03T08:23:07;7.60;92.90
9984;DHT22;16737;50.932;6.780;2023-04-03T08:25:41;7.70;93.20
9984;DHT22;16737;50.932;6.780;2023-04-03T08:28:30;7.80;93.40
9984;DHT22;16737;50.932;6.780;2023-04-03T08:31:03;7.90;93.40
9984;DHT22;16737;50.932;6.780;2023-04-03T08:33:33;8.00;93.40
9984;DHT22;16737;50.932;6.780;2023-04-03T08:36:03;8.10;93.40
9984;DHT22;16737;50.932;6.780;2023-04-03T08:38:32;8.10;92.90
9984;DHT22;16737;50.932;6.780;2023-04-03T08:41:04;8.20;93.20
9984;DHT22;16737;50.932;6.780;2023-04-03T08:43:54;8.30;93.50
9984;DHT22;16737;50.932;6.780;2023-04-03T08:46:36;8.40;93.20
9984;DHT22;16737;50.932;6.780;2023-04-03T08:49:20;8.50;92.80
9984;DHT22;16737;50.932;6.780;2023-04-03T08:51:53;8.60;93.00
9984;DHT22;16737;50.932;6.780;2023-04-03T08:54:28;8.70;93.20
9984;DHT22;16737;50.932;6.780;2023-04-03T08:57:00;8.80;93.20
9984;DHT22;16737;50.932;6.780;2023-04-03T08:59:33;8.90;93.10
9984;DHT22;16737;50.932;6.780;2023-04-03T09:02:12;9.10;93.00
9984;DHT22;16737;50.932;6.780;2023-04-03T09:04:50;9.20;93.00
9984;DHT22;16737;50.932;6.780;2023-04-03T09:07:30;9.30;92.90
9984;DHT22;16737;50.932;6.780;2023-04-03T09:10:03;9.40;92.90
9984;DHT22;16737;50.932;6.780;2023-04-03T09:12:37;9.50;93.10
9984;DHT22;16737;50.932;6.780;2023-04-03T09:15:16;9.60;92.20
9984;DHT22;16737;50.932;6.780;2023-04-03T09:17:53;9.70;92.10
9984;DHT22;16737;50.932;6.780;2023-04-03T09:20:35;9.70;92.10
9984;DHT22;16737;50.932;6.780;2023-04-03T09:23:18;9.80;92.10
9984;DHT22;16737;50.932;6.780;2023-04-03T09:25:51;9.90;91.20
9984;DHT22;16737;50.932;6.780;2023-04-03T09:28:24;10.00;91.20
9984;DHT22;16737;50.932;6.780;2023-04-03T09:30:51;10.00;91.30
9984;DHT22;16737;50.932;6.780;2023-04-03T09:33:19;10.10;91.30
9984;DHT22;16737;50.932;6.780;2023-04-03T09:35:48;10.20;91.30
9984;DHT22;16737;50.932;6.780;2023-04-03T09:38:18;10.30;91.00
9984;DHT22;16737;50.932;6.780;2023-04-03T09:40:49;10.30;91.00
9984;DHT22;16737;50.932;6.780;2023-04-03T09:43:26;10.40;91.00
9984;DHT22;16737;50.932;6.780;2023-04-03T09:45:56;10.60;90.80
9984;DHT22;16737;50.932;6.780;2023-04-03T09:48:51;10.70;91.40
9984;DHT22;16737;50.932;6.780;2023-04-03T09:51:25;10.80;90.80
9984;DHT22;16737;50.932;6.780;2023-04-03T09:53:54;10.90;90.90
9984;DHT22;16737;50.932;6.780;2023-04-03T09:56:25;11.00;90.90
9984;DHT22;16737;50.932;6.780;2023-04-03T09:59:12;11.10;90.70
9984;DHT22;16737;50.932;6.780;2023-04-03T10:01:43;11.20;90.00
9984;DHT22;16737;50.932;6.780;2023-04-03T10:04:23;11.30;90.50
9984;DHT22;16737;50.932;6.780;2023-04-03T10:06:52;11.40;89.80
9984;DHT22;16737;50.932;6.780;2023-04-03T10:09:23;11.40;90.10
9984;DHT22;16737;50.932;6.780;2023-04-03T10:12:00;11.50;90.00
9984;DHT22;16737;50.932;6.780;2023-04-03T10:14:33;11.60;89.00
9984;DHT22;16737;50.932;6.780;2023-04-03T10:17:13;11.60;89.50
9984;DHT22;16737;50.932;6.780;2023-04-03T10:19:47;11.70;87.70
9984;DHT22;16737;50.932;6.780;2023-04-03T10:22:25;11.80;88.50
9984;DHT22;16737;50.932;6.780;2023-04-03T10:25:12;11.80;88.10
9984;DHT22;16737;50.932;6.780;2023-04-03T10:27:53;11.90;85.30
9984;DHT22;16737;50.932;6.780;2023-04-03T10:30:34;11.90;85.50
9984;DHT22;16737;50.932;6.780;2023-04-03T10:33:23;11.90;83.60
9984;DHT22;16737;50.932;6.780;2023-04-03T10:36:10;11.90;84.20
9984;DHT22;16737;50.932;6.780;2023-04-03T10:38:51;12.00;85.40
9984;DHT22;16737;50.932;6.780;2023-04-03T10:41:37;12.00;85.10
9984;DHT22;16737;50.932;6.780;2023-04-03T10:44:19;12.10;84.60
9984;DHT22;16737;50.932;6.780;2023-04-03T10:47:04;12.10;84.40
9984;DHT22;16737;50.932;6.780;2023-04-03T10:49:44;12.20;83.00
9984;DHT22;16737;50.932;6.780;2023-04-03T10:52:21;12.20;81.40
9984;DHT22;16737;50.932;6.780;2023-04-03T10:54:59;12.20;82.00
9984;DHT22;16737;50.932;6.780;2023-04-03T10:57:34;12.20;81.00
9984;DHT22;16737;50.932;6.780;2023-04-03T11:00:03;12.30;83.00
9984;DHT22;16737;50.932;6.780;2023-04-03T11:02:40;12.30;82.10
9984;DHT22;16737;50.932;6.780;2023-04-03T11:05:17;12.40;80.60
9984;DHT22;16737;50.932;6.780;2023-04-03T11:08:01;12.40;81.70
9984;DHT22;16737;50.932;6.780;2023-04-03T11:10:37;12.40;83.10
9984;DHT22;16737;50.932;6.780;2023-04-03T11:13:11;12.50;82.50
9984;DHT22;16737;50.932;6.780;2023-04-03T11:15:43;12.60;83.20
9984;DHT22;16737;50.932;6.780;2023-04-03T11:18:17;12.70;83.50
9984;DHT22;16737;50.932;6.780;2023-04-03T11:20:53;12.70;82.30
9984;DHT22;16737;50.932;6.780;2023-04-03T11:23:29;12.80;81.90
9984;DHT22;16737;50.932;6.780;2023-04-03T11:26:08;12.90;82.10
9984;DHT22;16737;50.932;6.780;2023-04-03T11:28:38;13.00;80.70
9984;DHT22;16737;50.932;6.780;2023-04-03T11:31:15;13.10;82.50
9984;DHT22;16737;50.932;6.780;2023-04-03T11:34:08;13.20;79.30
9984;DHT22;16737;50.932;6.780;2023-04-03T11:36:48;13.30;79.40
9984;DHT22;16737;50.932;6.780;2023-04-03T11:39:23;13.40;79.80
9984;DHT22;16737;50.932;6.780;2023-04-03T11:41:53;13.40;78.70
9984;DHT22;16737;50.932;6.780;2023-04-03T11:44:38;13.40;78.90
9984;DHT22;16737;50.932;6.780;2023-04-03T11:47:07;13.40;70.60
9984;DHT22;16737;50.932;6.780;2023-04-03T11:49:59;13.40;77.20
9984;DHT22;16737;50.932;6.780;2023-04-03T11:52:55;13.50;71.20
9984;DHT22;16737;50.932;6.780;2023-04-03T11:55:43;13.50;74.60
9984;DHT22;16737;50.932;6.780;2023-04-03T11:58:32;13.50;76.60
9984;DHT22;16737;50.932;6.780;2023-04-03T12:01:05;13.50;80.40
9984;DHT22;16737;50.932;6.780;2023-04-03T12:07:11;13.70;72.90
9984;DHT22;16737;50.932;6.780;2023-04-03T12:10:15;13.80;73.90
9984;DHT22;16737;50.932;6.780;2023-04-03T12:12:56;13.90;73.80
9984;DHT22;16737;50.932;6.780;2023-04-03T12:15:50;13.90;75.40
9984;DHT22;16737;50.932;6.780;2023-04-03T12:18:55;14.00;73.70
9984;DHT22;16737;50.932;6.780;2023-04-03T12:24:52;14.10;74.50
9984;DHT22;16737;50.932;6.780;2023-04-03T12:27:28;14.20;77.70
9984;DHT22;16737;50.932;6.780;2023-04-03T12:30:15;14.20;77.00
9984;DHT22;16737;50.932;6.780;2023-04-03T12:33:04;14.30;75.80
9984;DHT22;16737;50.932;6.780;2023-04-03T12:35:56;14.30;75.60
9984;DHT22;16737;50.932;6.780;2023-04-03T12:38:54;14.40;76.70
9984;DHT22;16737;50.932;6.780;2023-04-03T12:41:38;14.50;76.60
9984;DHT22;16737;50.932;6.780;2023-04-03T12:44:35;14.60;76.80
9984;DHT22;16737;50.932;6.780;2023-04-03T12:47:23;14.70;73.20
9984;DHT22;16737;50.932;6.780;2023-04-03T12:49:55;14.70;76.30
9984;DHT22;16737;50.932;6.780;2023-04-03T12:52:32;14.80;76.00
9984;DHT22;16737;50.932;6.780;2023-04-03T12:55:07;14.90;72.80
9984;DHT22;16737;50.932;6.780;2023-04-03T12:57:48;14.90;74.80
9984;DHT22;16737;50.932;6.780;2023-04-03T13:00:21;14.90;72.90
9984;DHT22;16737;50.932;6.780;2023-04-03T13:03:01;15.00;71.00
9984;DHT22;16737;50.932;6.780;2023-04-03T13:05:31;15.00;71.20
9984;DHT22;16737;50.932;6.780;2023-04-03T13:08:01;15.00;69.50
9984;DHT22;16737;50.932;6.780;2023-04-03T13:10:49;15.00;70.10
9984;DHT22;16737;50.932;6.780;2023-04-03T13:13:22;15.00;70.90
9984;DHT22;16737;50.932;6.780;2023-04-03T13:15:53;15.00;71.30
9984;DHT22;16737;50.932;6.780;2023-04-03T13:18:27;15.00;71.80
9984;DHT22;16737;50.932;6.780;2023-04-03T13:21:00;15.10;71.50
9984;DHT22;16737;50.932;6.780;2023-04-03T13:23:32;15.10;70.70
9984;DHT22;16737;50.932;6.780;2023-04-03T13:26:03;15.10;70.80
9984;DHT22;16737;50.932;6.780;2023-04-03T13:28:33;15.10;71.40
9984;DHT22;16737;50.932;6.780;2023-04-03T13:31:06;15.20;69.80
9984;DHT22;16737;50.932;6.780;2023-04-03T13:33:37;15.20;69.50
9984;DHT22;16737;50.932;6.780;2023-04-03T13:36:07;15.20;71.10
9984;DHT22;16737;50.932;6.780;2023-04-03T13:38:43;15.30;68.90
9984;DHT22;16737;50.932;6.780;2023-04-03T13:41:24;15.30;68.10
9984;DHT22;16737;50.932;6.780;2023-04-03T13:43:54;15.30;60.00
9984;DHT22;16737;50.932;6.780;2023-04-03T13:46:27;15.30;62.90
9984;DHT22;16737;50.932;6.780;2023-04-03T13:48:56;15.20;60.10
9984;DHT22;16737;50.932;6.780;2023-04-03T13:51:26;15.20;61.90
9984;DHT22;16737;50.932;6.780;2023-04-03T13:53:57;15.10;61.40
9984;DHT22;16737;50.932;6.780;2023-04-03T13:56:31;15.00;63.70
9984;DHT22;16737;50.932;6.780;2023-04-03T13:59:18;15.00;64.80
9984;DHT22;16737;50.932;6.780;2023-04-03T14:01:51;15.00;64.90
9984;DHT22;16737;50.932;6.780;2023-04-03T14:04:24;15.10;65.10
9984;DHT22;16737;50.932;6.780;2023-04-03T14:06:55;15.10;65.70
9984;DHT22;16737;50.932;6.780;2023-04-03T14:09:24;15.10;65.20
9984;DHT22;16737;50.932;6.780;2023-04-03T14:11:54;15.10;64.30
9984;DHT22;16737;50.932;6.780;2023-04-03T14:14:27;15.10;63.50
9984;DHT22;16737;50.932;6.780;2023-04-03T14:16:59;15.10;63.70
9984;DHT22;16737;50.932;6.780;2023-04-03T14:19:31;15.10;64.30
9984;DHT22;16737;50.932;6.780;2023-04-03T14:22:01;15.20;64.20
9984;DHT22;16737;50.932;6.780;2023-04-03T14:24:37;15.20;64.70
9984;DHT22;16737;50.932;6.780;2023-04-03T14:27:11;15.20;63.90
9984;DHT22;16737;50.932;6.780;2023-04-03T14:29:45;15.20;64.60
9984;DHT22;16737;50.932;6.780;2023-04-03T14:32:13;15.20;64.70
9984;DHT22;16737;50.932;6.780;2023-04-03T14:34:42;15.20;66.90
9984;DHT22;16737;50.932;6.780;2023-04-03T14:37:11;15.20;66.50
9984;DHT22;16737;50.932;6.780;2023-04-03T14:39:41;15.20;65.10
9984;DHT22;16737;50.932;6.780;2023-04-03T14:42:12;15.20;64.30
9984;DHT22;16737;50.932;6.780;2023-04-03T14:44:41;15.20;62.50
9984;DHT22;16737;50.932;6.780;2023-04-03T14:47:11;15.20;63.90
9984;DHT22;16737;50.932;6.780;2023-04-03T14:49:39;15.20;63.80
9984;DHT22;16737;50.932;6.780;2023-04-03T14:52:17;15.20;66.40
9984;DHT22;16737;50.932;6.780;2023-04-03T14:54:47;15.20;62.60
9984;DHT22;16737;50.932;6.780;2023-04-03T14:57:15;15.20;64.40
9984;DHT22;16737;50.932;6.780;2023-04-03T14:59:43;15.20;64.50
9984;DHT22;16737;50.932;6.780;2023-04-03T15:02:25;15.20;64.30
9984;DHT22;16737;50.932;6.780;2023-04-03T15:04:55;15.20;62.00
9984;DHT22;16737;50.932;6.780;2023-04-03T15:07:26;15.20;63.30
9984;DHT22;16737;50.932;6.780;2023-04-03T15:09:55;15.20;63.00
9984;DHT22;16737;50.932;6.780;2023-04-03T15:12:25;15.20;63.50
9984;DHT22;16737;50.932;6.780;2023-04-03T15:14:52;15.20;62.20
9984;DHT22;16737;50.932;6.780;2023-04-03T15:17:22;15.20;63.20
9984;DHT22;16737;50.932;6.780;2023-04-03T15:19:50;15.20;61.90
9984;DHT22;16737;50.932;6.780;2023-04-03T15:22:18;15.20;63.70
9984;DHT22;16737;50.932;6.780;2023-04-03T15:24:46;15.20;63.00
9984;DHT22;16737;50.932;6.780;2023-04-03T15:27:14;15.20;63.60
9984;DHT22;16737;50.932;6.780;2023-04-03T15:29:42;15.20;63.70
9984;DHT22;16737;50.932;6.780;2023-04-03T15:32:11;15.20;61.30
9984;DHT22;16737;50.932;6.780;2023-04-03T15:34:41;15.20;61.20
9984;DHT22;16737;50.932;6.780;2023-04-03T15:37:08;15.20;59.80
9984;DHT22;16737;50.932;6.780;2023-04-03T15:39:35;15.10;60.20
9984;DHT22;16737;50.932;6.780;2023-04-03T15:42:02;15.10;60.70
9984;DHT22;16737;50.932;6.780;2023-04-03T15:44:32;15.00;61.00
9984;DHT22;16737;50.932;6.780;2023-04-03T15:47:00;15.00;59.80
9984;DHT22;16737;50.932;6.780;2023-04-03T15:49:27;15.00;59.90
9984;DHT22;16737;50.932;6.780;2023-04-03T15:51:56;14.90;59.80
9984;DHT22;16737;50.932;6.780;2023-04-03T15:54:23;14.90;60.50
9984;DHT22;16737;50.932;6.780;2023-04-03T15:56:51;14.90;60.70
9984;DHT22;16737;50.932;6.780;2023-04-03T15:59:18;14.80;60.20
9984;DHT22;16737;50.932;6.780;2023-04-03T16:01:46;14.80;60.20
9984;DHT22;16737;50.932;6.780;2023-04-03T16:04:13;14.80;60.30
9984;DHT22;16737;50.932;6.780;2023-04-03T16:06:41;14.70;59.70
9984;DHT22;16737;50.932;6.780;2023-04-03T16:09:10;14.70;58.60
9984;DHT22;16737;50.932;6.780;2023-04-03T16:11:39;14.70;59.10
9984;DHT22;16737;50.932;6.780;2023-04-03T16:14:06;14.60;59.30
9984;DHT22;16737;50.932;6.780;2023-04-03T16:16:35;14.50;59.20
9984;DHT22;16737;50.932;6.780;2023-04-03T16:19:03;14.50;59.50
9984;DHT22;16737;50.932;6.780;2023-04-03T16:21:31;14.50;59.50
9984;DHT22;16737;50.932;6.780;2023-04-03T16:23:59;14.40;59.20
9984;DHT22;16737;50.932;6.780;2023-04-03T16:26:28;14.40;59.50
9984;DHT22;16737;50.932;6.780;2023-04-03T16:28:55;14.30;58.90